Terminal Aerodrome Forecast
Issued by NWS Dallas/Fort Worth, TX

Home | Current Version | Previous Version | Text Only | Print | Product List | Glossary On
Versions: 1 2 3 4 5 6 7 8 9 10 11 12 13 14 15 16 17 18 19 20 21 22 23 24 25 26 27 28 29 30 31 32
369
FTUS44 KFWD 300110 AAA
TAFDFW
TAF AMD
KDFW 300110Z 3001/3106 12008KT P6SM VCTS SCT040CB OVC250
      TEMPO 3001/3003 5SM -TSRA BKN050CB
     FM300300 11007KT P6SM SCT100 BKN250
     FM300500 12007KT P6SM VCTS BKN100CB
      TEMPO 3006/3009 5SM TSRA BKN030CB
     FM301100 13006KT P6SM BKN025
     FM301500 14007KT P6SM SCT100=

USA.gov is the U.S. government's official web portal to all federal, state and local government web resources and services.